Time;durP1;ratioP1;P1;durP2;ratioP2;P2;SDS_P1;SDS_P2;PMS_P1;PMS_P2;Temp;Humidity;BMP_temperature;BMP_pressure;BME280_temperature;BME280_humidity;BME280_pressure;Samples;Min_cycle;Max_cycle;Signal;HPM_P1;HPM_P2
2022/06/07 00:02:01;;;;;;;0.20;0.20;;;;;;;22.76;82.01;99943.72;5073349;28;20087;-79
2022/06/07 00:04:26;;;;;;;0.10;0.10;;;;;;;22.78;82.10;99966.72;5074126;28;20106;-79
2022/06/07 00:06:52;;;;;;;0.10;0.10;;;;;;;22.79;81.60;99959.81;5073585;28;20447;-78
2022/06/07 00:09:17;;;;;;;0.10;0.10;;;;;;;22.52;82.31;99922.56;5073076;28;20086;-78
2022/06/07 00:11:43;;;;;;;0.10;0.10;;;;;;;22.81;81.81;99950.88;5074389;28;20051;-79
2022/06/07 00:14:08;;;;;;;0.20;0.20;;;;;;;22.79;81.98;99954.13;5073244;28;20013;-79
2022/06/07 00:16:34;;;;;;;0.10;0.10;;;;;;;22.84;80.95;99956.41;5072869;28;20467;-80
2022/06/07 00:19:00;;;;;;;0.10;0.10;;;;;;;22.79;81.63;99954.13;5073819;28;20017;-78
2022/06/07 00:21:29;;;;;;;0.10;0.10;;;;;;;22.77;80.68;99928.28;5072748;28;20123;-80
2022/06/07 00:23:55;;;;;;;0.10;0.10;;;;;;;22.74;80.69;99934.84;5073979;28;20103;-79
2022/06/07 00:44:22;;;;;;;0.10;0.10;;;;;;;22.94;80.04;99940.34;5070763;28;20394;-76
2022/06/07 00:47:01;;;;;;;0.10;0.10;;;;;;;22.86;80.13;99942.59;5070264;28;20060;-76
2022/06/07 00:49:33;;;;;;;0.10;0.10;;;;;;;22.82;80.75;99939.06;5069312;28;20039;-74
2022/06/07 00:51:58;;;;;;;0.10;0.10;;;;;;;22.66;81.30;99939.97;5069189;28;20021;-76
2022/06/07 00:54:28;;;;;;;0.10;0.10;;;;;;;22.74;81.62;99941.34;5069660;28;20044;-74
2022/06/07 00:56:54;;;;;;;0.10;0.10;;;;;;;22.77;81.06;99944.50;5069076;28;20025;-73
2022/06/07 00:59:19;;;;;;;0.10;0.10;;;;;;;22.80;80.92;99938.72;5069534;28;20035;-74
2022/06/07 01:01:46;;;;;;;0.10;0.10;;;;;;;22.62;80.45;99915.78;5068974;28;20038;-73
2022/06/07 01:04:12;;;;;;;0.10;0.10;;;;;;;22.71;80.01;99933.72;5069499;28;20036;-74
2022/06/07 01:12:16;;;;;;;0.10;0.10;;;;;;;22.86;79.71;99936.91;5070596;28;20478;-74
2022/06/07 01:14:44;;;;;;;0.10;0.10;;;;;;;22.96;79.01;99935.81;5069891;28;20028;-74
2022/06/07 01:17:13;;;;;;;0.10;0.10;;;;;;;22.94;79.34;99915.59;5068796;28;20127;-75
2022/06/07 01:19:39;;;;;;;0.10;0.10;;;;;;;22.85;79.77;99931.69;5069988;28;20032;-74
2022/06/07 01:22:05;;;;;;;0.10;0.10;;;;;;;22.71;81.21;99936.56;5068758;28;20207;-75
2022/06/07 01:24:30;;;;;;;0.10;0.10;;;;;;;22.67;81.27;99935.88;5068911;28;20033;-75
2022/06/07 01:26:56;;;;;;;0.10;0.10;;;;;;;22.68;80.46;99931.00;5068872;28;20478;-75
2022/06/07 01:29:22;;;;;;;0.10;0.10;;;;;;;22.55;81.14;99935.88;5068525;28;20489;-75
2022/06/07 01:31:47;;;;;;;0.10;0.10;;;;;;;22.55;80.99;99924.53;5068999;28;20035;-74
2022/06/07 01:34:16;;;;;;;0.20;0.20;;;;;;;22.54;81.30;99929.41;5068707;28;20383;-75
2022/06/07 01:36:41;;;;;;;0.10;0.10;;;;;;;22.57;81.68;99924.84;5069982;28;20027;-74
2022/06/07 01:41:54;;;;;;;0.10;0.10;;;;;;;22.64;79.74;99936.00;5069599;28;20089;-74
2022/06/07 01:44:41;;;;;;;0.10;0.10;;;;;;;22.60;79.38;99926.78;5068212;28;20056;-74
2022/06/07 01:47:12;;;;;;;0.10;0.10;;;;;;;22.59;79.38;99928.06;5067955;28;20033;-74
2022/06/07 01:49:38;;;;;;;0.10;0.10;;;;;;;22.65;78.98;99915.69;5068113;28;20035;-74
2022/06/07 01:52:05;;;;;;;0.10;0.10;;;;;;;22.68;78.91;99913.97;5068367;28;20106;-74
2022/06/07 01:54:31;;;;;;;0.10;0.10;;;;;;;22.63;79.82;99914.53;5059360;28;20025;-74
2022/06/07 01:56:56;;;;;;;0.10;0.10;;;;;;;22.58;79.75;99917.94;5055340;28;20029;-75
2022/06/07 01:59:22;;;;;;;0.10;0.10;;;;;;;22.53;80.03;99918.50;5055303;28;20421;-74
2022/06/07 02:01:49;;;;;;;0.10;0.10;;;;;;;22.21;80.81;99889.06;5054612;28;20441;-74
2022/06/07 02:04:15;;;;;;;0.10;0.10;;;;;;;22.37;81.35;99917.34;5054704;28;20083;-74
2022/06/07 02:06:41;;;;;;;0.10;0.10;;;;;;;22.51;82.04;99923.81;5055170;28;20364;-75
2022/06/07 02:09:08;;;;;;;0.10;0.10;;;;;;;22.60;81.11;99918.28;5054783;28;20027;-74
2022/06/07 02:11:35;;;;;;;0.10;0.10;;;;;;;22.63;79.91;99918.16;5054558;28;20025;-74
2022/06/07 02:14:01;;;;;;;0.10;0.10;;;;;;;22.66;77.99;99919.31;5054919;28;20090;-75
2022/06/07 02:16:26;;;;;;;0.10;0.10;;;;;;;22.61;78.66;99914.19;5054958;28;20036;-74
2022/06/07 02:18:52;;;;;;;0.10;0.10;;;;;;;22.59;79.59;99916.72;5054712;28;20488;-74
2022/06/07 02:21:19;;;;;;;0.10;0.10;;;;;;;22.54;79.74;99920.91;5054345;28;20455;-75
2022/06/07 02:23:45;;;;;;;0.10;0.10;;;;;;;22.66;78.72;99920.09;5054891;28;20025;-75
2022/06/07 02:26:16;;;;;;;0.10;0.10;;;;;;;22.60;78.78;99909.78;5054619;28;20524;-75
2022/06/07 02:28:46;;;;;;;0.10;0.10;;;;;;;22.55;78.91;99922.47;5055257;28;20024;-75
2022/06/07 02:31:11;;;;;;;0.10;0.10;;;;;;;22.60;78.50;99913.41;5055000;28;20036;-75
2022/06/07 02:33:39;;;;;;;0.10;0.10;;;;;;;22.63;78.34;99911.69;5054369;28;20021;-75
2022/06/07 02:36:07;;;;;;;0.10;0.10;;;;;;;22.65;78.48;99909.22;5055736;28;20471;-75
2022/06/07 02:38:33;;;;;;;0.10;0.10;;;;;;;22.42;79.11;99908.25;5054369;28;20090;-76
2022/06/07 02:40:59;;;;;;;0.10;0.10;;;;;;;22.41;79.46;99906.69;5055602;28;20423;-75
2022/06/07 02:43:25;;;;;;;0.10;0.10;;;;;;;22.53;78.64;99904.31;5053658;28;20048;-75
2022/06/07 02:45:53;;;;;;;0.10;0.10;;;;;;;22.25;79.20;99875.59;5054406;28;20482;-75
2022/06/07 02:48:19;;;;;;;0.10;0.10;;;;;;;22.40;79.53;99910.75;5053810;28;20044;-74
2022/06/07 02:50:44;;;;;;;0.10;0.10;;;;;;;22.39;79.46;99909.19;5054382;28;20037;-75
2022/06/07 02:53:12;;;;;;;0.10;0.10;;;;;;;22.38;79.11;99904.75;5055032;28;20344;-75
2022/06/07 02:55:41;;;;;;;0.10;0.10;;;;;;;22.30;79.64;99900.53;5053589;28;20021;-75
2022/06/07 02:58:06;;;;;;;0.10;0.10;;;;;;;22.32;79.01;99903.75;5053941;28;20429;-75
2022/06/07 03:00:32;;;;;;;0.10;0.10;;;;;;;22.33;79.89;99902.47;5053579;28;20086;-74
2022/06/07 03:02:57;;;;;;;0.10;0.10;;;;;;;22.39;78.89;99908.38;5053781;28;20082;-74
2022/06/07 03:05:26;;;;;;;0.10;0.10;;;;;;;22.49;78.74;99913.75;5052506;28;20501;-75
2022/06/07 03:07:51;;;;;;;0.10;0.10;;;;;;;22.47;78.64;99923.94;5053901;28;20422;-75
2022/06/07 03:10:28;;;;;;;0.10;0.10;;;;;;;22.46;78.63;99925.19;5053722;28;20033;-74
2022/06/07 03:12:53;;;;;;;0.10;0.10;;;;;;;22.42;78.25;99928.09;5054317;28;20032;-75
2022/06/07 03:15:19;;;;;;;0.10;0.10;;;;;;;22.42;78.17;99925.28;5054042;28;20029;-75
2022/06/07 03:17:45;;;;;;;0.10;0.10;;;;;;;22.43;77.88;99921.22;5053446;28;20059;-75
2022/06/07 03:20:11;;;;;;;0.10;0.10;;;;;;;22.42;77.84;99913.94;5053506;28;20051;-75
2022/06/07 03:22:37;;;;;;;0.10;0.10;;;;;;;22.35;77.43;99894.31;5053178;28;20032;-74
2022/06/07 03:25:07;;;;;;;0.10;0.10;;;;;;;22.51;77.22;99921.00;5053446;28;20032;-75
2022/06/07 03:27:35;;;;;;;0.10;0.10;;;;;;;22.43;77.14;99921.22;5054360;28;20066;-75
2022/06/07 03:30:06;;;;;;;0.10;0.10;;;;;;;22.41;77.50;99923.69;5054310;28;20029;-75
2022/06/07 03:32:33;;;;;;;0.10;0.10;;;;;;;22.44;77.37;99928.47;5053954;28;20035;-75
2022/06/07 03:34:58;;;;;;;0.10;0.10;;;;;;;22.49;77.00;99922.25;5054529;28;20028;-76
2022/06/07 03:37:24;;;;;;;0.17;0.17;;;;;;;22.47;76.67;99930.38;5052936;28;20397;-75
2022/06/07 03:39:51;;;;;;;0.10;0.10;;;;;;;22.52;76.59;99928.25;5052879;28;20085;-75
2022/06/07 03:42:17;;;;;;;0.10;0.10;;;;;;;22.51;76.80;99932.34;5053717;28;20041;-75
2022/06/07 03:44:46;;;;;;;0.10;0.10;;;;;;;22.51;76.41;99932.34;5053535;28;20021;-75
2022/06/07 03:47:11;;;;;;;0.10;0.10;;;;;;;22.51;76.61;99933.13;5052899;28;20041;-74
2022/06/07 03:49:37;;;;;;;0.10;0.10;;;;;;;22.62;76.64;99929.97;5053183;28;20371;-75
2022/06/07 03:52:02;;;;;;;0.10;0.10;;;;;;;22.67;75.11;99932.25;5052978;28;20025;-74
2022/06/07 03:54:31;;;;;;;0.10;0.10;;;;;;;22.74;75.19;99930.00;5052522;28;20029;-75
2022/06/07 03:56:57;;;;;;;0.10;0.10;;;;;;;22.72;75.20;99931.69;5052420;28;20025;-75
2022/06/07 03:59:22;;;;;;;0.10;0.10;;;;;;;22.96;74.29;99935.81;5052330;28;20116;-75
2022/06/07 04:01:50;;;;;;;0.10;0.10;;;;;;;23.27;73.27;99932.38;5052590;28;20114;-75
2022/06/07 04:04:16;;;;;;;0.10;0.10;;;;;;;23.63;71.64;99932.00;5052866;28;20470;-75
2022/06/07 04:09:31;;;;;;;0.10;0.10;;;;;;;24.36;68.29;99926.16;5053873;28;20040;-74
2022/06/07 04:11:56;;;;;;;0.10;0.10;;;;;;;24.73;66.72;99923.53;5052457;28;20123;-75
2022/06/07 04:14:22;;;;;;;0.10;0.10;;;;;;;25.00;65.54;99917.94;5052652;28;20444;-75
2022/06/07 04:16:47;;;;;;;0.10;0.10;;;;;;;25.27;64.45;99931.50;5051997;28;20040;-75
2022/06/07 04:19:13;;;;;;;0.10;0.10;;;;;;;25.58;63.53;99930.63;5052210;28;20032;-75
2022/06/07 04:21:39;;;;;;;0.10;0.10;;;;;;;25.89;61.97;99930.53;5052290;28;20056;-75
2022/06/07 04:24:05;;;;;;;0.10;0.10;;;;;;;26.06;60.78;99928.94;5052340;28;20020;-75
2022/06/07 04:26:32;;;;;;;0.10;0.10;;;;;;;26.45;60.06;99926.38;5052610;28;20033;-75
2022/06/07 04:28:58;;;;;;;0.10;0.10;;;;;;;26.85;58.99;99931.03;5053624;28;20025;-75
2022/06/07 04:31:25;;;;;;;0.10;0.10;;;;;;;27.19;56.58;99931.88;5052262;28;20036;-75
2022/06/07 04:33:56;;;;;;;0.10;0.10;;;;;;;27.63;55.56;99932.88;5052193;28;20059;-75
2022/06/07 04:36:26;;;;;;;0.10;0.10;;;;;;;28.00;54.29;99938.34;5052272;28;20025;-74
2022/06/07 04:38:53;;;;;;;0.00;0.00;;;;;;;28.30;53.60;99938.41;5053415;28;20032;-75
2022/06/07 04:41:21;;;;;;;0.10;0.10;;;;;;;28.68;52.72;99940.41;5051999;28;20033;-75
2022/06/07 04:43:51;;;;;;;0.10;0.10;;;;;;;27.97;53.49;99939.31;5053106;28;20053;-75
2022/06/07 04:46:18;;;;;;;0.10;0.10;;;;;;;28.55;52.16;99943.59;5051957;28;20024;-75
2022/06/07 04:48:45;;;;;;;0.10;0.10;;;;;;;29.12;51.00;99940.38;5052422;28;20120;-75
2022/06/07 04:51:20;;;;;;;0.10;0.10;;;;;;;29.35;49.75;99941.53;5052144;28;20029;-74
2022/06/07 04:53:48;;;;;;;0.10;0.10;;;;;;;29.12;50.27;99945.31;5053043;28;20033;-75
2022/06/07 04:56:17;;;;;;;0.10;0.10;;;;;;;29.52;49.56;99938.09;5051830;28;20021;-75
2022/06/07 04:58:43;;;;;;;0.10;0.10;;;;;;;29.66;48.36;99940.13;5053578;28;20463;-76
2022/06/07 05:01:15;;;;;;;0.10;0.10;;;;;;;29.60;47.95;99940.06;5051721;28;20025;-75
2022/06/07 05:03:41;;;;;;;0.10;0.10;;;;;;;29.55;48.68;99946.50;5052536;28;20037;-76
2022/06/07 05:06:26;;;;;;;0.10;0.10;;;;;;;30.07;47.24;99938.03;5051980;28;20478;-75
2022/06/07 05:08:55;;;;;;;0.10;0.10;;;;;;;29.94;47.56;99946.25;5052377;28;20498;-75
2022/06/07 05:11:20;;;;;;;0.10;0.10;;;;;;;30.08;47.30;99947.44;5051370;28;20032;-76
2022/06/07 05:13:46;;;;;;;0.10;0.10;;;;;;;29.60;47.52;99948.66;5052051;28;20028;-76
2022/06/07 05:16:12;;;;;;;0.10;0.10;;;;;;;29.90;47.04;99942.81;5051750;28;20397;-74
2022/06/07 05:18:38;;;;;;;0.10;0.10;;;;;;;29.84;47.47;99937.00;5052139;28;20143;-75
2022/06/07 05:21:07;;;;;;;0.10;0.10;;;;;;;29.62;48.31;99948.97;5051782;28;20456;-75
2022/06/07 05:23:35;;;;;;;0.10;0.10;;;;;;;29.49;48.39;99939.88;5051237;28;20063;-75
2022/06/07 05:26:12;;;;;;;0.10;0.10;;;;;;;29.17;49.62;99936.81;5051523;28;20055;-75
2022/06/07 05:28:40;;;;;;;0.10;0.10;;;;;;;29.22;48.93;99949.66;5052086;28;20043;-75
2022/06/07 05:31:06;;;;;;;0.10;0.10;;;;;;;29.52;49.12;99941.75;5056797;28;20052;-76
2022/06/07 05:33:32;;;;;;;0.10;0.10;;;;;;;29.24;49.87;99944.19;5054787;28;20117;-75
2022/06/07 05:35:58;;;;;;;0.10;0.10;;;;;;;29.60;48.62;99937.19;5054736;28;20090;-74
2022/06/07 05:38:27;;;;;;;0.10;0.10;;;;;;;29.65;48.22;99933.63;5055469;28;20087;-75
2022/06/07 05:40:53;;;;;;;0.10;0.10;;;;;;;28.98;50.35;99944.09;5055126;28;20075;-75
2022/06/07 05:43:22;;;;;;;0.10;0.10;;;;;;;28.91;50.84;99941.56;5054661;28;20052;-75
2022/06/07 05:45:53;;;;;;;0.10;0.10;;;;;;;28.70;50.98;99943.56;5054908;28;20039;-75
2022/06/07 05:48:19;;;;;;;0.10;0.10;;;;;;;29.11;50.16;99940.88;5056217;28;20025;-75
2022/06/07 05:50:48;;;;;;;0.10;0.10;;;;;;;29.05;50.82;99946.53;5056266;28;20075;-75
2022/06/07 05:53:14;;;;;;;0.10;0.10;;;;;;;28.29;52.27;99954.00;5054817;28;20025;-75
2022/06/07 05:55:40;;;;;;;0.10;0.10;;;;;;;28.60;51.66;99944.94;5055025;28;20036;-75
2022/06/07 05:58:06;;;;;;;0.10;0.10;;;;;;;28.60;51.82;99951.47;5055472;28;20040;-75
2022/06/07 06:00:32;;;;;;;0.10;0.10;;;;;;;29.06;50.26;99942.38;5056029;28;20028;-75
2022/06/07 06:02:58;;;;;;;0.10;0.10;;;;;;;29.41;50.60;99948.13;5055179;28;20471;-75
2022/06/07 06:05:24;;;;;;;0.10;0.10;;;;;;;29.72;49.77;99947.53;5054805;28;20094;-75
2022/06/07 06:10:33;;;;;;;0.10;0.10;;;;;;;30.33;47.62;99948.78;5056348;28;20394;-75
2022/06/07 06:12:59;;;;;;;0.10;0.10;;;;;;;30.07;47.80;99920.84;5055142;28;20033;-75
2022/06/07 06:15:24;;;;;;;0.10;0.10;;;;;;;30.07;47.44;99949.53;5054500;28;20063;-74
2022/06/07 06:17:50;;;;;;;0.10;0.10;;;;;;;30.35;46.21;99949.06;5054884;28;20097;-75
2022/06/07 06:20:16;;;;;;;0.10;0.10;;;;;;;30.52;47.02;99950.84;5054168;28;20530;-75
2022/06/07 06:22:42;;;;;;;0.10;0.10;;;;;;;30.08;47.95;99939.63;5054173;28;20037;-74
2022/06/07 06:25:11;;;;;;;0.10;0.10;;;;;;;30.80;46.89;99946.69;5055767;28;20068;-75
2022/06/07 06:27:37;;;;;;;0.10;0.10;;;;;;;30.74;46.52;99940.88;5054102;28;20087;-75
2022/06/07 06:30:04;;;;;;;0.10;0.10;;;;;;;30.56;47.34;99935.44;5054101;28;20379;-74
2022/06/07 06:32:29;;;;;;;0.10;0.10;;;;;;;30.37;48.01;99944.41;5055322;28;20033;-75
2022/06/07 06:34:58;;;;;;;0.10;0.10;;;;;;;31.24;45.51;99935.50;5054115;28;20028;-75
2022/06/07 06:37:27;;;;;;;0.10;0.10;;;;;;;30.99;46.48;99953.59;5054134;28;20033;-75
2022/06/07 06:39:53;;;;;;;0.10;0.10;;;;;;;29.39;49.89;99938.44;5053991;28;20537;-75
2022/06/07 06:42:19;;;;;;;0.10;0.10;;;;;;;29.34;50.65;99942.78;5054065;28;20044;-75
2022/06/07 06:44:44;;;;;;;0.10;0.10;;;;;;;28.82;51.26;99950.28;5053816;28;20025;-75
2022/06/07 06:47:12;;;;;;;0.10;0.10;;;;;;;29.33;49.57;99951.91;5053802;28;20040;-75
2022/06/07 06:49:40;;;;;;;0.10;0.10;;;;;;;29.69;48.73;99947.75;5053737;28;20352;-75
2022/06/07 06:52:07;;;;;;;0.10;0.10;;;;;;;29.92;48.71;99949.59;5054976;28;20025;-74
2022/06/07 06:54:35;;;;;;;0.10;0.10;;;;;;;30.08;48.96;99945.34;5053583;28;20025;-75
2022/06/07 06:57:01;;;;;;;0.10;0.10;;;;;;;31.22;44.83;99946.75;5053429;28;20028;-74
2022/06/07 06:59:30;;;;;;;0.10;0.10;;;;;;;30.63;46.86;99949.34;5053998;28;20020;-75
2022/06/07 07:01:56;;;;;;;0.10;0.10;;;;;;;30.35;46.15;99937.59;5053654;28;20029;-75
2022/06/07 07:04:22;;;;;;;0.10;0.10;;;;;;;31.06;45.18;99947.41;5053557;28;20446;-75
2022/06/07 07:06:48;;;;;;;0.10;0.10;;;;;;;31.14;45.10;99942.75;5053379;28;20029;-76
2022/06/07 07:09:19;;;;;;;0.00;0.00;;;;;;;31.56;42.88;99949.84;5054708;28;20031;-74
2022/06/07 07:11:50;;;;;;;0.10;0.10;;;;;;;30.99;44.62;99942.13;5053298;28;20037;-74
2022/06/07 07:14:15;;;;;;;0.10;0.10;;;;;;;30.81;45.44;99946.16;5053501;28;20391;-75
2022/06/07 07:16:44;;;;;;;0.10;0.10;;;;;;;31.07;44.83;99943.22;5053374;28;20025;-75
2022/06/07 07:19:11;;;;;;;0.10;0.10;;;;;;;31.36;44.05;99936.41;5054608;28;20372;-75
2022/06/07 07:21:39;;;;;;;0.10;0.10;;;;;;;32.38;40.77;99926.13;5054607;28;20044;-75
2022/06/07 07:24:08;;;;;;;0.10;0.10;;;;;;;30.75;45.76;99939.56;5053123;28;20036;-74
2022/06/07 07:26:36;;;;;;;0.10;0.10;;;;;;;30.17;47.20;99928.03;5054617;28;20025;-75
2022/06/07 07:29:05;;;;;;;0.10;0.10;;;;;;;31.48;44.40;99925.75;5052496;28;20056;-75
2022/06/07 07:31:33;;;;;;;0.10;0.10;;;;;;;31.73;42.93;99930.56;5054179;28;20033;-75
2022/06/07 07:34:02;;;;;;;0.10;0.10;;;;;;;31.59;43.60;99922.13;5052919;28;20162;-75
2022/06/07 07:36:28;;;;;;;0.10;0.10;;;;;;;32.31;42.36;99933.16;5052910;28;20057;-75
2022/06/07 07:38:57;;;;;;;0.10;0.10;;;;;;;32.04;42.33;99923.16;5052622;28;20078;-75
2022/06/07 07:41:32;;;;;;;0.10;0.10;;;;;;;32.31;41.52;99933.16;5052890;28;20467;-74
2022/06/07 07:43:59;;;;;;;0.10;0.10;;;;;;;32.61;40.82;99921.97;5052591;28;20128;-75
2022/06/07 07:46:29;;;;;;;0.10;0.10;;;;;;;33.93;38.87;99923.66;5052664;28;20055;-75
2022/06/07 07:48:56;;;;;;;0.10;0.10;;;;;;;34.35;36.93;99928.09;5052729;28;20065;-75
2022/06/07 07:51:24;;;;;;;0.10;0.10;;;;;;;34.95;36.38;99929.56;5052999;28;20025;-75
2022/06/07 07:53:52;;;;;;;0.10;0.10;;;;;;;35.47;34.68;99937.22;5052647;28;20065;-75
2022/06/07 07:56:22;;;;;;;0.10;0.10;;;;;;;34.51;37.08;99920.69;5052661;28;20120;-75
2022/06/07 07:58:48;;;;;;;0.10;0.10;;;;;;;34.46;35.91;99906.28;5052646;28;20119;-75
2022/06/07 08:01:18;;;;;;;0.10;0.10;;;;;;;34.13;36.68;99922.47;5052892;28;20087;-75
2022/06/07 08:03:44;;;;;;;0.10;0.10;;;;;;;34.57;35.87;99918.56;5053428;28;20029;-76
2022/06/07 08:06:15;;;;;;;0.10;0.10;;;;;;;34.58;35.86;99917.22;5054136;28;20111;-75
2022/06/07 08:08:45;;;;;;;0.00;0.00;;;;;;;33.92;37.26;99924.13;5036766;28;20065;-75
2022/06/07 08:11:11;;;;;;;0.10;0.10;;;;;;;33.14;39.18;99920.16;5053953;28;20263;-76
2022/06/07 08:13:37;;;;;;;0.10;0.10;;;;;;;32.84;39.89;99919.88;5052035;28;20025;-75
2022/06/07 08:16:06;;;;;;;0.10;0.10;;;;;;;33.89;37.43;99918.13;5052243;28;20482;-75
2022/06/07 08:18:33;;;;;;;0.10;0.10;;;;;;;33.36;38.16;99925.88;5052251;28;20017;-75
2022/06/07 08:21:01;;;;;;;0.10;0.10;;;;;;;33.99;37.10;99904.19;5052225;28;20040;-75
2022/06/07 08:23:30;;;;;;;0.10;0.10;;;;;;;34.09;37.14;99904.63;5052441;28;20471;-75
2022/06/07 08:25:56;;;;;;;0.10;0.10;;;;;;;34.28;36.46;99911.34;5053479;28;20040;-75
2022/06/07 08:28:22;;;;;;;0.10;0.10;;;;;;;33.97;37.27;99903.16;5052197;28;20060;-75
2022/06/07 08:30:50;;;;;;;0.10;0.10;;;;;;;35.01;35.88;99910.06;5052699;28;20122;-75
2022/06/07 08:38:49;;;;;;;0.10;0.10;;;;;;;32.24;40.06;99917.19;5053804;28;20039;-75
2022/06/07 08:41:32;;;;;;;0.10;0.10;;;;;;;33.19;39.35;99907.06;5051860;28;20036;-75
2022/06/07 08:44:15;;;;;;;0.10;0.10;;;;;;;33.93;37.59;99899.72;5051228;28;20114;-75
2022/06/07 08:46:40;;;;;;;0.10;0.10;;;;;;;33.99;37.17;99897.63;5052405;28;20032;-75
2022/06/07 08:49:06;;;;;;;0.10;0.10;;;;;;;33.79;37.60;99902.41;5051789;28;20029;-75
2022/06/07 08:51:47;;;;;;;0.10;0.10;;;;;;;33.68;37.08;99893.03;5051678;28;20025;-75
2022/06/07 08:54:22;;;;;;;0.10;0.10;;;;;;;34.96;35.28;99911.69;5051417;28;20037;-74
2022/06/07 08:56:48;;;;;;;0.10;0.10;;;;;;;35.18;34.09;99896.22;5052031;28;20508;-75
2022/06/07 08:59:17;;;;;;;0.10;0.10;;;;;;;34.03;36.89;99901.78;5053595;28;20048;-75
2022/06/07 09:02:14;;;;;;;0.10;0.10;;;;;;;34.71;35.96;99901.34;5053523;28;20033;-75
2022/06/07 09:04:40;;;;;;;0.10;0.10;;;;;;;35.22;34.29;99895.94;5054023;28;20029;-74
2022/06/07 09:07:13;;;;;;;0.10;0.10;;;;;;;34.73;34.24;99899.50;5055669;28;20045;-75
2022/06/07 09:12:34;;;;;;;0.10;0.10;;;;;;;34.06;35.74;99886.31;5057356;28;20039;-75
2022/06/07 09:14:59;;;;;;;0.10;0.10;;;;;;;35.15;34.37;99892.28;5056873;28;20031;-75
2022/06/07 09:17:36;;;;;;;0.10;0.10;;;;;;;34.85;34.95;99891.53;5055537;28;20124;-75
2022/06/07 09:20:14;;;;;;;0.10;0.10;;;;;;;35.73;33.66;99894.03;5056567;28;20360;-75
2022/06/07 09:23:09;;;;;;;0.10;0.10;;;;;;;35.27;34.48;99884.28;5057080;28;20027;-75
2022/06/07 09:25:48;;;;;;;0.10;0.10;;;;;;;35.18;34.30;99884.66;5055888;28;20028;-74
2022/06/07 09:28:34;;;;;;;0.10;0.10;;;;;;;35.72;33.34;99885.91;5055359;28;20056;-75
2022/06/07 09:31:04;;;;;;;0.10;0.10;;;;;;;35.24;34.16;99882.47;5054818;28;20495;-74
2022/06/07 09:33:33;;;;;;;0.10;0.10;;;;;;;35.23;33.99;99875.13;5055674;28;20029;-76
2022/06/07 09:36:21;;;;;;;0.10;0.10;;;;;;;34.42;34.04;99865.34;5055599;28;20057;-75
2022/06/07 09:38:55;;;;;;;0.10;0.10;;;;;;;35.12;33.67;99878.94;5047239;28;20056;-76
2022/06/07 09:41:39;;;;;;;0.10;0.10;;;;;;;36.01;32.50;99878.41;5056593;28;20029;-76
2022/06/07 09:44:23;;;;;;;0.10;0.10;;;;;;;36.57;31.66;99871.78;5054979;28;20044;-77
2022/06/07 09:47:15;;;;;;;0.10;0.10;;;;;;;36.05;32.63;99873.09;5055449;28;20490;-77
2022/06/07 09:49:46;;;;;;;0.10;0.10;;;;;;;36.42;32.10;99864.38;5055152;28;20032;-76
2022/06/07 09:52:20;;;;;;;0.10;0.10;;;;;;;35.93;32.53;99873.25;5055308;28;20471;-76
2022/06/07 09:54:49;;;;;;;0.10;0.10;;;;;;;35.95;32.26;99864.78;5056682;28;20029;-77
2022/06/07 09:57:37;;;;;;;0.10;0.10;;;;;;;35.56;33.31;99864.53;5055299;28;20029;-76
2022/06/07 10:00:06;;;;;;;0.03;0.03;;;;;;;34.52;35.60;99852.94;5056502;28;20021;-76
2022/06/07 10:02:58;;;;;;;0.10;0.10;;;;;;;34.86;35.77;99864.97;5055500;28;20037;-76
2022/06/07 10:05:33;;;;;;;0.10;0.10;;;;;;;35.76;33.97;99840.84;5054917;28;20032;-76
2022/06/07 10:08:36;;;;;;;0.10;0.10;;;;;;;36.40;32.97;99846.75;5055175;28;20063;-76
2022/06/07 10:11:11;;;;;;;0.10;0.10;;;;;;;34.63;34.49;99844.19;5056839;28;20479;-76
2022/06/07 10:13:48;;;;;;;0.10;0.10;;;;;;;34.72;34.84;99842.25;5054828;28;20068;-76
2022/06/07 10:16:49;;;;;;;0.10;0.10;;;;;;;34.63;34.53;99841.28;5054285;28;20020;-76
2022/06/07 10:20:11;;;;;;;0.10;0.10;;;;;;;35.61;33.68;99828.94;5004186;28;20479;-76
2022/06/07 10:22:54;;;;;;;0.10;0.10;;;;;;;35.19;33.81;99839.94;5006743;28;20134;-76
2022/06/07 10:25:30;;;;;;;0.10;0.10;;;;;;;34.49;34.73;99830.91;5054557;28;20029;-76
2022/06/07 10:28:15;;;;;;;0.10;0.10;;;;;;;35.08;33.51;99834.28;5054638;28;20485;-76
2022/06/07 10:30:50;;;;;;;0.10;0.10;;;;;;;33.85;35.52;99813.72;5054660;28;20028;-76
2022/06/07 10:34:06;;;;;;;0.10;0.10;;;;;;;34.74;34.26;99825.19;5055442;28;20419;-75
2022/06/07 10:36:49;;;;;;;0.10;0.10;;;;;;;34.59;35.35;99835.00;4997528;28;20126;-75
2022/06/07 10:39:20;;;;;;;0.10;0.10;;;;;;;33.13;37.87;99809.03;5048806;28;20123;-74
2022/06/07 10:42:23;;;;;;;0.10;0.10;;;;;;;34.32;36.80;99818.69;5054442;28;20032;-75
2022/06/07 10:44:59;;;;;;;0.10;0.10;;;;;;;33.89;38.00;99819.22;5054708;28;20151;-75
2022/06/07 10:47:40;;;;;;;0.10;0.10;;;;;;;34.01;39.01;99808.41;5053840;28;20535;-74
2022/06/07 10:50:24;;;;;;;0.10;0.10;;;;;;;34.39;37.65;99815.97;5055238;28;20021;-75
2022/06/07 10:53:06;;;;;;;0.10;0.10;;;;;;;33.60;38.64;99809.16;5054183;28;20029;-75
2022/06/07 10:55:45;;;;;;;0.10;0.10;;;;;;;33.86;37.69;99806.63;5053477;28;20516;-74
2022/06/07 10:58:47;;;;;;;0.10;0.10;;;;;;;34.30;36.91;99799.00;5053419;28;20021;-75
2022/06/07 11:01:27;;;;;;;0.10;0.10;;;;;;;34.56;36.92;99806.41;5055819;28;20155;-75
2022/06/07 11:09:58;;;;;;;0.10;0.10;;;;;;;34.14;36.76;99771.03;5055275;28;20039;-75
2022/06/07 11:12:33;;;;;;;0.10;0.10;;;;;;;34.40;37.05;99805.22;5053929;28;20516;-75
2022/06/07 11:15:01;;;;;;;0.10;0.10;;;;;;;34.18;37.80;99796.75;5053657;28;20115;-76
2022/06/07 11:17:47;;;;;;;0.10;0.10;;;;;;;34.04;37.33;99787.16;5054201;28;20367;-75
2022/06/07 11:20:24;;;;;;;0.10;0.10;;;;;;;34.53;36.66;99795.97;5053564;28;20039;-74
2022/06/07 11:23:13;;;;;;;0.10;0.10;;;;;;;33.74;39.68;99787.84;5053744;28;20075;-75
2022/06/07 11:25:57;;;;;;;0.10;0.10;;;;;;;33.32;39.53;99784.09;5052975;28;20029;-75
2022/06/07 11:28:27;;;;;;;0.10;0.10;;;;;;;32.61;40.05;99780.88;5053424;28;20029;-75
2022/06/07 11:30:59;;;;;;;0.10;0.10;;;;;;;33.55;39.61;99784.00;5054822;28;20112;-75
2022/06/07 11:33:39;;;;;;;0.10;0.10;;;;;;;33.01;41.35;99781.59;5054058;28;20076;-75
2022/06/07 11:36:13;;;;;;;0.10;0.10;;;;;;;32.73;42.70;99768.00;5054528;28;20036;-75
2022/06/07 11:38:54;;;;;;;0.10;0.10;;;;;;;33.06;41.19;99772.13;5053206;28;20123;-74
2022/06/07 11:41:37;;;;;;;0.10;0.10;;;;;;;32.79;41.14;99770.88;5053514;28;20029;-75
2022/06/07 11:44:07;;;;;;;0.10;0.10;;;;;;;32.91;41.70;99768.78;5052793;28;20044;-75
2022/06/07 11:46:33;;;;;;;0.10;0.10;;;;;;;32.75;41.05;99759.63;5053531;28;20021;-75
2022/06/07 11:49:19;;;;;;;0.10;0.10;;;;;;;33.02;40.73;99762.97;5053430;28;20531;-75
2022/06/07 11:51:57;;;;;;;0.10;0.10;;;;;;;32.91;40.85;99758.03;5052809;28;20463;-75
2022/06/07 11:54:28;;;;;;;0.10;0.10;;;;;;;33.02;41.05;99749.34;5053248;28;20114;-75
2022/06/07 11:56:59;;;;;;;0.10;0.10;;;;;;;32.97;41.05;99752.25;5053363;28;20091;-75
2022/06/07 11:59:46;;;;;;;0.10;0.10;;;;;;;32.99;41.02;99753.31;5052387;28;20036;-75
2022/06/07 12:02:15;;;;;;;0.10;0.10;;;;;;;33.06;41.54;99749.09;5054348;28;20029;-75
2022/06/07 12:04:40;;;;;;;0.10;0.10;;;;;;;32.36;42.96;99750.28;5052738;28;20083;-76
2022/06/07 12:07:10;;;;;;;0.10;0.10;;;;;;;31.86;42.58;99748.16;5053327;28;20032;-76
2022/06/07 12:09:38;;;;;;;0.10;0.10;;;;;;;32.20;42.20;99743.19;5053236;28;20124;-74
2022/06/07 12:12:21;;;;;;;0.10;0.10;;;;;;;31.92;43.61;99741.09;5052829;28;20021;-75
2022/06/07 12:14:49;;;;;;;;;;;;;;;31.88;43.82;99745.53;5052527;28;20029;-73
2022/06/07 12:17:33;;;;;;;0.10;0.10;;;;;;;32.21;43.60;99745.53;5052826;28;19944;-79
2022/06/07 12:20:01;;;;;;;0.10;0.10;;;;;;;31.75;45.36;99748.91;5052468;28;20082;-74
2022/06/07 12:22:40;;;;;;;0.10;0.10;;;;;;;30.90;47.28;99738.41;5054084;28;20044;-73
2022/06/07 12:25:17;;;;;;;0.10;0.10;;;;;;;31.65;45.37;99733.97;5052766;28;20490;-76
2022/06/07 12:27:52;;;;;;;0.10;0.10;;;;;;;30.96;46.49;99736.34;5054268;28;20029;-73
2022/06/07 12:30:28;;;;;;;0.10;0.10;;;;;;;31.14;44.04;99733.00;5053212;28;20502;-73
2022/06/07 12:33:14;;;;;;;0.10;0.10;;;;;;;30.89;45.56;99731.06;5053105;28;20029;-74
2022/06/07 12:35:52;;;;;;;0.10;0.10;;;;;;;30.85;46.74;99724.78;5054216;28;20025;-74
2022/06/07 12:38:19;;;;;;;0.10;0.10;;;;;;;30.66;47.08;99719.44;5052707;28;20383;-74